Flight Track Log - Related Links

Times and Time Zones

All times are in EDT time to prevent confusion due to time zone crossing. See the AWE1253 flight status page for this flight to view local times or setup timezone preferences in your user account.

Time Position Orientation Groundspeed Altitude Reporting Facility
EDT Latitude Longitude Course Direction KTS MPH feet Rate Location/Type
Thu 10:51:41 PM 39.8500 -75.2833 237° Southwest 181 208 900  Level Philadelphia TRACON
Thu 10:52:05 PM 39.8500 -75.3167 270° West 199 229 1,500 2,200 Climbing Philadelphia TRACON
Thu 10:53:11 PM 39.8167 -75.3833 237° Southwest 219 252 4,200 2,476 Climbing Philadelphia TRACON
Thu 10:54:00 PM 39.8333 -75.6601 270° West  Level FlightAware Approximate
Thu 10:54:11 PM 39.8000 -75.4667 255° West 272 313 6,700  Level Philadelphia TRACON
Thu 10:55:00 PM 39.8229 -75.8008 232° Southwest  Level FlightAware Approximate
Thu 10:56:00 PM 39.7542 -75.9152 232° Southwest  Level FlightAware Approximate
Thu 10:56:06 PM 39.8222 -75.6631 278° West 271 312 10,800  Level New York Center
Thu 10:57:00 PM 39.6801 -76.0232 237° Southwest  Level FlightAware Approximate
Thu 10:57:07 PM 39.8319 -75.7828 276° West 326 375 12,000  Level New York Center
Thu 10:58:05 PM 39.7883 -75.8742 238° Southwest 331 381 14,200 2,542 Climbing New York Center
Thu 10:59:05 PM 39.7189 -75.9853 231° Southwest 355 409 17,000 2,517 Climbing New York Center
Thu 11:00:59 PM 39.6039 -76.1706 231° Southwest 368 423 21,500 2,276 Climbing Washington Center
Thu 11:01:59 PM 39.5344 -76.2750 229° Southwest 378 435 23,600 2,136 Climbing Washington Center
Thu 11:02:57 PM 39.4672 -76.3844 232° Southwest 383 441 25,700 1,916 Climbing Washington Center
Thu 11:03:58 PM 39.3978 -76.4939 231° Southwest 389 448 27,400 2,164 Climbing Washington Center
Thu 11:04:59 PM 39.3197 -76.6056 228° Southwest 395 455 30,100 2,017 Climbing Washington Center
Thu 11:05:57 PM 39.2519 -76.7147 231° Southwest 390 449 31,400 1,350 Climbing Washington Center
Thu 11:06:59 PM 39.1992 -76.7994 231° Southwest 390 449 32,800 1,400 Climbing Washington Center
Thu 11:07:57 PM 39.1208 -76.9186 230° Southwest 379 436 34,200 1,150 Climbing Washington Center
Thu 11:08:59 PM 39.0550 -77.0217 231° Southwest 374 430 35,100 900 Climbing Washington Center
Thu 11:09:57 PM 38.9767 -77.1108 222° Southwest 374 430 36,000 450 Climbing Washington Center
Thu 11:10:59 PM 38.8986 -77.1972 221° Southwest 374 430 36,000  Level Washington Center
Thu 11:11:57 PM 38.8181 -77.2861 221° Southwest 382 440 36,000  Level Washington Center
Thu 11:12:58 PM 38.7375 -77.3722 220° Southwest 387 445 36,000  Level Washington Center
Thu 11:13:59 PM 38.6656 -77.4503 220° Southwest 387 445 36,000  Level Washington Center
Thu 11:14:59 PM 38.5869 -77.5386 221° Southwest 387 445 36,000  Level Washington Center
Thu 11:15:58 PM 38.5064 -77.6267 221° Southwest 382 440 36,000  Level Washington Center
Thu 11:16:59 PM 38.4236 -77.7119 219° Southwest 382 440 36,000  Level Washington Center
Thu 11:17:59 PM 38.3469 -77.7969 221° Southwest 382 440 36,000  Level Washington Center
Thu 11:18:57 PM 38.2661 -77.8872 221° Southwest 382 440 36,000  Level Washington Center
Thu 11:19:58 PM 38.1831 -77.9717 219° Southwest 382 440 36,000  Level Washington Center
Thu 11:20:59 PM 38.1042 -78.0589 221° Southwest 382 440 36,000  Level Washington Center
Thu 11:21:58 PM 38.0231 -78.1433 219° Southwest 382 440 36,000  Level Washington Center
Thu 11:22:59 PM 37.9378 -78.2300 219° Southwest 377 434 36,000  Level Washington Center
Thu 11:23:57 PM 37.8525 -78.3111 217° Southwest 377 434 36,000  Level Washington Center
Thu 11:24:58 PM 37.7694 -78.3897 217° Southwest 382 440 36,000  Level Washington Center
Thu 11:25:59 PM 37.6842 -78.4678 216° Southwest 382 440 36,000  Level Washington Center
Thu 11:26:57 PM 37.6072 -78.5408 217° Southwest 382 440 36,000  Level Washington Center
Thu 11:27:58 PM 37.5219 -78.6189 216° Southwest 382 440 36,000  Level Washington Center
Thu 11:29:00 PM 37.4386 -78.6992 217° Southwest 382 440 36,000  Level Washington Center
Thu 11:29:57 PM 37.3531 -78.7767 216° Southwest 382 440 36,000  Level Washington Center
Thu 11:30:57 PM 37.2589 -78.8642 216° Southwest 382 440 36,000  Level Washington Center
Thu 11:31:58 PM 37.1711 -78.9439 216° Southwest 387 445 36,000  Level Washington Center
Thu 11:32:57 PM 37.0833 -79.0258 217° Southwest 392 451 36,000  Level Washington Center
Thu 11:33:57 PM 36.9953 -79.1078 217° Southwest 392 451 36,000  Level Washington Center
Thu 11:34:58 PM 36.9094 -79.1869 216° Southwest 392 451 36,000  Level Washington Center
Thu 11:36:00 PM 36.8303 -79.2586 216° Southwest 397 457 36,000  Level Washington Center
Thu 11:36:59 PM 36.7442 -79.3400 217° Southwest 397 457 36,000  Level Washington Center
Thu 11:37:57 PM 36.6542 -79.4186 215° Southwest 397 457 36,000  Level Washington Center
Thu 11:38:58 PM 36.5700 -79.4997 218° Southwest 397 457 36,000  Level Washington Center
Thu 11:40:56 PM 36.3869 -79.6622 216° Southwest 394 453 36,000  Level Atlanta Center
Thu 11:41:56 PM 36.3019 -79.7389 216° Southwest 394 453 36,000  Level Atlanta Center
Thu 11:42:56 PM 36.2131 -79.8183 216° Southwest 394 453 36,000  Level Atlanta Center
Thu 11:43:56 PM 36.1383 -79.8867 216° Southwest 394 453 36,000  Level Atlanta Center
Thu 11:44:56 PM 36.0514 -79.9681 217° Southwest 394 453 36,000  Level Atlanta Center
Thu 11:45:56 PM 35.9528 -80.0217 204° Southwest 394 453 36,000  Level Atlanta Center
Thu 11:46:56 PM 35.8481 -80.0731 202° Southwest 394 453 36,000  Level Atlanta Center
Thu 11:47:56 PM 35.7353 -80.1297 202° Southwest 400 460 36,000  Level Atlanta Center
Thu 11:48:56 PM 35.6306 -80.1858 204° Southwest 407 468 36,000  Level Atlanta Center
Thu 11:49:56 PM 35.5381 -80.2308 202° Southwest 407 468 36,000  Level Atlanta Center
Thu 11:50:56 PM 35.4253 -80.2872 202° Southwest 402 463 36,000  Level Atlanta Center
Thu 11:51:56 PM 35.3347 -80.3344 203° Southwest 402 463 36,000  Level Atlanta Center
Thu 11:52:56 PM 35.2339 -80.3822 201° Southwest 396 456 36,000  Level Atlanta Center
Thu 11:55:11 PM 34.9925 -80.5031 202° Southwest 394 453 36,000  Level Jacksonville Center
Thu 11:56:11 PM 34.9014 -80.5461 201° Southwest 399 459 36,000  Level Jacksonville Center
Thu 11:57:11 PM 34.7900 -80.6022 202° Southwest 399 459 36,000 -50 Level Jacksonville Center
Thu 11:58:11 PM 34.7031 -80.6425 201° Southwest 393 452 35,900  Descending Jacksonville Center
Thu 11:59:11 PM 34.5914 -80.7008 203° Southwest 411 473 36,000 50 Climbing Jacksonville Center
Fri 12:00:11 AM 34.4922 -80.7486 202° Southwest 409 471 36,000  Level Jacksonville Center
Fri 12:01:11 AM 34.3742 -80.8119 204° Southwest 414 476 36,000 -50 Level Jacksonville Center
Fri 12:02:11 AM 34.2789 -80.8569 201° Southwest 404 465 35,900 -50 Descending Jacksonville Center
Fri 12:03:11 AM 34.1733 -80.9047 201° Southwest 397 457 35,900  Level Jacksonville Center
Fri 12:04:11 AM 34.0719 -80.9547 202° Southwest 397 457 35,900  Level Jacksonville Center
Fri 12:05:11 AM 33.9683 -81.0044 202° Southwest 402 463 35,900 50 Level Jacksonville Center
Fri 12:06:11 AM 33.8606 -81.0544 201° Southwest 407 468 36,000 50 Climbing Jacksonville Center
Fri 12:07:11 AM 33.7528 -81.1042 201° Southwest 407 468 36,000 -50 Level Jacksonville Center
Fri 12:08:11 AM 33.6492 -81.1611 205° Southwest 412 474 35,900 -50 Descending Jacksonville Center
Fri 12:09:11 AM 33.5414 -81.2131 202° Southwest 412 474 35,900  Level Jacksonville Center
Fri 12:10:11 AM 33.4336 -81.2672 203° Southwest 412 474 35,900  Level Jacksonville Center
Fri 12:11:11 AM 33.3217 -81.3217 202° Southwest 418 481 35,900  Level Jacksonville Center
Fri 12:12:11 AM 33.2136 -81.3756 203° Southwest 418 481 35,900  Level Jacksonville Center
Fri 12:13:11 AM 33.1078 -81.4269 202° Southwest 418 481 35,900  Level Jacksonville Center
Fri 12:14:11 AM 32.9958 -81.4808 202° Southwest 423 487 35,900  Level Jacksonville Center
Fri 12:15:11 AM 32.8858 -81.5319 201° Southwest 428 493 35,900  Level Jacksonville Center
Fri 12:16:11 AM 32.7756 -81.5856 202° Southwest 434 499 35,900 50 Level Jacksonville Center
Fri 12:17:11 AM 32.6781 -81.6364 204° Southwest 428 493 36,000 50 Climbing Jacksonville Center
Fri 12:18:11 AM 32.5575 -81.6922 201° Southwest 423 487 36,000  Level Jacksonville Center
Fri 12:19:11 AM 32.4433 -81.7478 202° Southwest 439 505 36,000  Level Jacksonville Center
Fri 12:20:11 AM 32.3433 -81.7933 201° Southwest 439 505 36,000  Level Jacksonville Center
Fri 12:21:11 AM 32.2122 -81.8367 196° South 439 505 36,000  Level Jacksonville Center
Fri 12:22:11 AM 32.1017 -81.8575 189° South 444 511 36,000  Level Jacksonville Center
Fri 12:23:11 AM 31.9683 -81.8861 190° South 450 518 36,000  Level Jacksonville Center
Fri 12:24:11 AM 31.8453 -81.9119 190° South 450 518 36,000  Level Jacksonville Center
Fri 12:25:11 AM 31.7350 -81.9325 189° South 450 518 36,000 -450 Level Jacksonville Center
Fri 12:26:11 AM 31.5972 -81.9608 190° South 450 518 35,100 -900 Descending Jacksonville Center
Fri 12:27:11 AM 31.4825 -81.9839 190° South 450 518 34,200 -600 Descending Jacksonville Center
Fri 12:28:11 AM 31.3450 -82.0169 192° South 462 532 33,900 -150 Descending Jacksonville Center
Fri 12:29:11 AM 31.2200 -82.0400 189° South 468 539 33,900  Level Jacksonville Center
Fri 12:30:10 AM 31.0989 -82.0653 190° South 462 532 33,900  Level Jacksonville Center
Fri 12:31:10 AM 30.9758 -82.0881 189° South 457 526 33,900  Level Jacksonville Center
Fri 12:32:10 AM 30.8531 -82.1133 190° South 457 526 33,900  Level Jacksonville Center
Fri 12:33:10 AM 30.7300 -82.1361 189° South 451 519 33,900  Level Jacksonville Center
Fri 12:34:10 AM 30.6089 -82.1611 190° South 451 519 33,900  Level Jacksonville Center
Fri 12:35:10 AM 30.4964 -82.1767 187° South 451 519 33,900 50 Level Jacksonville Center
Fri 12:36:10 AM 30.3692 -82.2039 190° South 451 519 34,000  Climbing Jacksonville Center
Fri 12:37:10 AM 30.2439 -82.2289 190° South 451 519 33,900 -50 Descending Jacksonville Center
Fri 12:38:10 AM 30.1189 -82.2539 190° South 457 526 33,900  Level Jacksonville Center
Fri 12:39:10 AM 29.9917 -82.2833 191° South 462 532 33,900  Level Jacksonville Center
Fri 12:40:10 AM 29.8664 -82.3081 190° South 468 539 33,900  Level Jacksonville Center
Fri 12:41:10 AM 29.7411 -82.3281 188° South 468 539 33,900 -300 Level Jacksonville Center
Fri 12:42:10 AM 29.6181 -82.3503 189° South 463 533 33,300 -2,050 Descending Jacksonville Center
Fri 12:43:10 AM 29.4928 -82.3461 178° South 458 527 29,800 -2,900 Descending Jacksonville Center
Fri 12:44:10 AM 29.3883 -82.3350 175° South 458 527 27,500 -2,750 Descending Jacksonville Center
Fri 12:45:10 AM 29.2422 -82.3167 174° South 458 527 24,300 3,250 Descending Jacksonville Center
Fri 12:46:10 AM 29.1233 -82.3031 174° South 445 512 34,000 -3,050 Climbing Jacksonville Center
Fri 12:47:10 AM 29.0042 -82.2872 173° South 440 506 18,200 -9,300 Descending Jacksonville Center
Fri 12:48:10 AM 28.8914 -82.2758 175° South 427 491 15,400 -1,696 Descending Jacksonville Center
Fri 12:50:14 AM 28.6833 -82.2500 174° South 326 375 13,000 -1,043 Descending Tampa TRACON
Fri 12:51:14 AM 28.5833 -82.2500 180° South 314 361 12,200 -1,250 Descending Tampa TRACON
Fri 12:52:14 AM 28.5000 -82.2500 180° South 309 356 10,500 -1,550 Descending Tampa TRACON
Fri 12:53:14 AM 28.4167 -82.2500 180° South 302 348 9,100 -1,632 Descending Tampa TRACON
Fri 12:54:08 AM 28.3500 -82.2667 192° South 288 331 7,400 -1,368 Descending Tampa TRACON
Fri 12:55:08 AM 28.3000 -82.3333 230° Southwest 273 314 6,500 -800 Descending Tampa TRACON
Fri 12:56:08 AM 28.2833 -82.4000 254° West 227 261 5,800 -850 Descending Tampa TRACON
Fri 12:57:08 AM 28.2833 -82.4667 270° West 219 252 4,800 -950 Descending Tampa TRACON
Fri 12:58:08 AM 28.2333 -82.5167 221° Southwest 226 260 3,900 -700 Descending Tampa TRACON
Fri 12:59:08 AM 28.1833 -82.5333 196° South 228 262 3,400 -700 Descending Tampa TRACON
Fri 01:00:08 AM 28.1167 -82.5333 180° South 212 244 2,500 -950 Descending Tampa TRACON
Fri 01:01:08 AM 28.0667 -82.5333 180° South 184 212 1,500 -900 Descending Tampa TRACON
Fri 01:02:08 AM 28.0333 -82.5333 180° South 144 166 700 -800 Descending Tampa TRACON
Fri 01:04:00 AM 27.9755 -82.5332 174° South  Level Estimated
Fri 01:11:00 AM 27.9755 -82.5332 174° South  Level Estimated
Fri 01:12:00 AM 27.9755 -82.5332 174° South  Level Estimated

Login

Don't have an account? Register now (free) for customized features, flight alerts, and more!